Rachel, Nevada Weather observations

Data are for observation ending at time listed.
 Day   Time    Ave.   Ave.  Ave.  Vector   Max.   Stn.    Total    Solar   Ave.  
  of    of     Air    Rel.  Wind   Wind    Wind   Baro.  Precip.   Rad.    Soil  
Year   Day     Temp.  Hum.  Speed  Dir.    Gust   Pres.                    Temp. 
2021   (PST)    F      %     mph   deg.    mph     mb.     in.     W/m2     F   
------------------------------------------------------------------------------
 290    0:00   38.2    26    1.3   225      2.5   851.5    0.00       0    52.2
 290    0:10   37.0    27    1.0   248      3.4   851.5    0.00       0    52.1
 290    0:20   34.5    28    1.4   312      5.4   851.4    0.00       0    52.0
 290    0:30   33.4    30    1.1   319      2.8   851.3    0.00       0    51.7
 290    0:40   34.3    29    1.2   124      2.9   851.3    0.00       0    51.7
 290    0:50   35.0    28    2.7   122      3.6   851.1    0.00       0    51.4
 290    1:00   35.6    28    3.0   128      3.9   851.1    0.00       0    51.1
 290    1:10   36.4    28    3.5   123      4.7   850.9    0.00       0    50.9
 290    1:20   36.7    28    3.0   140      4.7   851.2    0.00       0    50.9
 290    1:30   37.1    28    3.4   233      4.5   851.2    0.00       0    50.7
 290    1:40   36.5    28    3.1   271      5.0   851.2    0.00       0    50.5
 290    1:50   36.7    28    2.4   314      3.3   851.1    0.00       0    50.6
 290    2:00   34.9    29    1.4   296      3.0   850.9    0.00       0    50.3
 290    2:10   34.0    30    0.1   205      0.8   850.9    0.00       0    50.2
 290    2:20   32.5    31    1.3   299      2.9   850.8    0.00       0    50.1
 290    2:30   31.8    33    0.5   308      1.7   850.4    0.00       0    50.1
 290    2:40   32.0    34    1.5   270      2.5   849.4    0.00       0    49.8
 290    2:50   31.4    32    3.1   192      3.9   849.5    0.00       0    49.6
 290    3:00   31.4    32    3.4   170      4.6   849.6    0.00       0    49.5
 290    3:10   32.0    33    1.3   183      2.4   850.0    0.00       0    49.3
 290    3:20   32.1    33    0.8   245      1.8   850.0    0.00       0    49.2
 290    3:30   32.1    32    2.3   284      3.1   849.9    0.00       0    49.0
 290    3:40   31.7    32    1.9   297      2.9   850.1    0.00       0    49.0
 290    3:50   30.7    32    3.3   287      5.7   850.1    0.00       0    48.8
 290    4:00   29.3    34    1.7   263      2.9   850.0    0.00       0    48.7
 290    4:10   28.0    36    2.6   184      3.7   849.7    0.00       0    48.6
 290    4:20   29.0    35    3.7   196      4.7   849.6    0.00       0    48.5
 290    4:30   29.9    34    3.3   223      4.2   849.6    0.00       0    48.1
 290    4:40   29.9    33    3.0   231      3.7   849.3    0.00       0    48.1
 290    4:50   30.6    32    3.2   228      3.9   849.2    0.00       0    47.9
 290    5:00   30.8    33    4.0   214      5.4   849.1    0.00       0    47.9
 290    5:10   30.7    33    3.7   196      4.7   849.0    0.00       0    47.8
 290    5:20   31.6    33    2.2   188      3.2   849.0    0.00       0    47.6
 290    5:30   32.3    33    0.6   228      1.6   849.0    0.00       0    47.5
 290    5:40   31.3    33    1.0   107      3.1   848.9    0.00       0    47.4
 290    5:50   28.9    34    1.9    52      3.7   848.9    0.00       0    47.2
 290    6:00   27.8    35    2.4   351      3.7   848.9    0.00       2    47.2
 290    6:10   27.5    37    2.1   322      3.7   848.9    0.00       3    47.0
 290    6:20   27.2    38    0.8   328      2.0   848.8    0.00       8    47.0
 290    6:30   27.1    39    0.9   158      2.9   849.1    0.00      15    46.9
 290    6:40   27.4    39    1.8    98      2.9   849.7    0.00      28    46.7
 290    6:50   28.3    37    2.9   107      3.7   849.8    0.00      44    46.8
 290    7:00   29.3    34    2.6   101      4.6   849.7    0.00      47    46.5
 290    7:10   30.7    34    2.1    53      2.7   849.8    0.00      80    46.3
 290    7:20   31.8    33    2.4   348      3.9   849.9    0.00     139    46.4
 290    7:30   31.9    33    2.2   327      3.8   850.1    0.00     207    46.4
 290    7:40   33.4    31    2.2   317      3.4   850.3    0.00     226    46.3
 290    7:50   35.4    29    2.7   282      4.0   850.5    0.00     250    46.5
 290    8:00   37.6    28    2.9   276      4.5   850.7    0.00     282    46.7
 290    8:10   39.7    26    2.5   268      3.7   850.8    0.00     311    46.9
 290    8:20   41.6    25    1.9   273      3.4   850.9    0.00     334    47.2
 290    8:30   41.9    25    2.4   278      3.8   851.1    0.00     355    47.5
 290    8:40   43.4    24    2.3   278      4.1   851.3    0.00     376    47.7
 290    8:50   45.3    23    1.3   275      3.4   851.4    0.00     396    48.0
 290    9:00   47.6    21    1.1   287      3.6   851.4    0.00     415    48.4
 290    9:10   48.4    21    1.3   286      3.0   851.5    0.00     435    48.7
 290    9:20   49.4    20    1.4   337      4.4   851.6    0.00     453    48.8
 290    9:30   51.3    19    1.1   336      3.1   851.6    0.00     471    49.4
 290    9:40   52.8    18    2.3   357      4.2   851.5    0.00     486    49.7
 290    9:50   53.2    18    2.6   340      4.5   851.5    0.00     500    49.9
 290   10:00   54.3    18    2.2   318      4.2   851.7    0.00     512    50.5
 290   10:10   55.5    18    4.1   313      6.8   851.7    0.00     525    50.9
 290   10:20   57.3    17    4.5   321      7.1   851.7    0.00     537    51.4
 290   10:30   60.8    16    3.8   309      8.3   851.7    0.00     546    51.7
 290   10:40   63.8    14    6.1   169     18.1   851.9    0.00     553    52.1
 290   10:50   66.1    14   11.2   177     17.7   851.8    0.00     560    52.6
 290   11:00   66.3    14   15.1   173     22.8   851.8    0.00     566    52.7
 290   11:10   66.4    14   16.0   170     20.8   851.7    0.00     573    53.2
 290   11:20   66.7    14   16.4   160     22.3   851.5    0.00     588    53.7
 290   11:30   67.6    14   15.8   158     21.9   851.2    0.00     586    54.0
 290   11:40   67.6    14   12.8   172     21.0   851.3    0.00     462    54.5
 290   11:50   67.1    14   15.5   168     24.3   851.0    0.00     316    54.9
 290   12:00   67.3    13   13.9   169     21.3   850.8    0.00     356    999.0
 290   12:10   67.9    13   15.9   182     20.4   850.7    0.00     293    55.6
 290   12:20   67.7    13   15.5   191     30.5   850.5    0.00     246    999.0
 290   12:30   67.7    12   18.1   202     27.1   850.3    0.00     358    56.1
 290   12:40   68.1    13   13.6   209     23.0   850.2    0.00     390    56.4
 290   12:50   68.4    13   14.2   219     21.4   850.0    0.00     346    56.5
 290   13:00   68.7    13   14.0   216     26.5   849.9    0.00     358    999.0
 290   13:10   68.3    13   14.8   214     23.8   849.8    0.00     306    57.1
 290   13:20   68.8    12   14.9   211     24.5   849.6    0.00     293    59.2
 290   13:30   68.5    12   18.2   219     29.4   849.4    0.00     319    57.5
 290   13:40   68.0    12   17.9   223     27.0   849.3    0.00     257    57.8
 290   13:50   68.2    12   15.1   224     23.0   849.2    0.00     358    58.2
 290   14:00   68.4    12   13.5   224     20.8   849.2    0.00     270    57.5
 290   14:10   68.1    13   13.8   218     21.1   849.2    0.00     245    57.5
 290   14:20   68.4    13   11.9   205     20.0   849.1    0.00     279    57.6
 290   14:30   68.3    13   19.4   190     27.0   849.0    0.00     287    999.0
 290   14:40   67.9    13   21.8   191     30.9   848.8    0.00     225    58.3
 290   14:50   67.9    13   20.6   190     31.0   848.7    0.00     285    58.5
 290   15:00   68.1    13   22.2   184     30.9   848.5    0.00     310    58.5
 290   15:10   68.0    13   20.4   191     30.1   848.4    0.00     285    58.6
 290   15:20   68.5    13   19.1   204     29.0   848.4    0.00     274    58.7
 290   15:30   68.3    13   15.2   205     24.9   848.4    0.00     256    58.7
 290   15:40   68.2    13   16.0   196     26.4   848.3    0.00     239    58.7
 290   15:50   68.0    13   14.2   214     23.3   848.2    0.00     116    59.0
 290   16:00   67.6    13   15.5   214     24.5   847.9    0.00     106    59.0
 290   16:10   67.6    13   15.9   206     23.3   847.7    0.00     150    59.0
 290   16:20   67.8    13   18.0   210     27.3   847.5    0.00     174    59.1
 290   16:30   67.2    13   16.2   208     23.6   847.5    0.00      67    59.2
 290   16:40   66.6    13   16.3   207     24.3   847.3    0.00      65    59.1
 290   16:50   66.5    13   17.1   210     26.1   847.1    0.00      59    58.8
 290   17:00   66.0    13   14.8   209     21.8   846.9    0.00      27    59.2
 290   17:10   65.3    14   14.4   196     19.5   846.7    0.00      12    59.1
 290   17:20   64.7    13   12.2   198     18.0   846.6    0.00       4    59.2
 290   17:30   64.0    14   13.8   193     28.6   846.6    0.00       2    59.3
 290   17:40   63.7    14   15.5   204     26.2   846.7    0.00       0    58.9
 290   17:50   63.3    14   17.1   196     24.2   846.6    0.00       0    58.9
 290   18:00   62.6    14   13.4   190     24.3   846.7    0.00       0    58.9
 290   18:10   61.9    14   12.7   180     17.5   846.4    0.00       0    58.7
 290   18:20   61.4    15   12.4   179     19.4   846.3    0.00       0    58.7
 290   18:30   61.6    14   14.2   177     21.5   846.2    0.00       0    58.6
 290   18:40   61.1    15   13.4   180     20.1   846.1    0.00       0    58.3
 290   18:50   60.9    15   12.9   182     18.0   846.0    0.00       0    58.3
 290   19:00   61.1    14   13.8   196     20.0   845.9    0.00       0    58.2
 290   19:10   61.2    14   13.8   207     19.9   845.9    0.00       0    58.2
 290   19:20   61.1    14   12.4   205     21.1   845.8    0.00       0    58.2
 290   19:30   60.9    14   13.9   205     24.3   845.8    0.00       0    57.8
 290   19:40   61.2    14   16.9   203     21.9   845.8    0.00       0    57.9
 290   19:50   60.9    14   16.9   202     25.6   845.7    0.00       0    57.8
 290   20:00   60.6    14   19.0   197     29.5   845.4    0.00       0    57.8
 290   20:10   60.8    14   18.9   203     24.9   845.5    0.00       0    57.8
 290   20:20   60.6    14   16.6   208     26.4   845.7    0.00       0    57.6
 290   20:30   60.9    13   20.3   211     28.4   845.7    0.00       0    57.6
 290   20:40   60.7    13   20.6   207     32.3   845.4    0.00       0    57.5
 290   20:50   59.7    14   14.0   196     20.6   845.3    0.00       0    57.4
 290   21:00   59.1    14   12.3   192     25.3   845.2    0.00       0    57.3
 290   21:10   59.5    13   20.9   195     31.9   844.9    0.00       0    57.2
 290   21:20   59.6    13   22.7   193     33.7   844.9    0.00       0    57.2
 290   21:30   59.6    13   21.0   183     31.1   844.9    0.00       0    56.8
 290   21:40   59.3    13   18.3   180     27.3   845.0    0.00       0    57.1
 290   21:50   58.8    14   16.8   185     27.7   845.0    0.00       0    57.2
 290   22:00   58.5    14   14.9   187     24.3   845.0    0.00       0    56.9
 290   22:10   58.1    14   11.8   203     17.0   845.0    0.00       0    56.8
 290   22:20   58.0    14   12.9   198     18.3   844.8    0.00       0    56.4
 290   22:30   57.4    15   11.4   199     19.7   844.6    0.00       0    56.1
 290   22:40   57.4    15   12.6   197     21.9   844.5    0.00       0    56.3
 290   22:50   57.3    16   16.8   196     24.4   844.3    0.00       0    56.5
 290   23:00   57.5    17   21.7   193     28.9   844.3    0.00       0    56.8
 290   23:10   57.7    17   21.5   187     29.3   844.2    0.00       0    56.4

Return to St. George, Utah graphs page.


Western Regional Climate Center,wrcc@dri.edu